Terminal Aerodrome Forecast
Issued by NWS Nashville, TN

Home | Current Version | Previous Version | Text Only | Print | Product List | Glossary On
Versions: 1 2 3 4 5 6 7 8 9 10 11 12 13 14 15 16 17 18 19 20
000
FTUS44 KOHX 282329
TAFBNA
TAF
KBNA 282329Z 2900/2924 20003KT P6SM SCT050 BKN120 BKN250
      TEMPO 2908/2912 4SM BR
     FM291400 32004KT P6SM SCT100 BKN250
     FM291800 35006KT P6SM VCTS SCT050CB BKN250=

USA.gov is the U.S. government's official web portal to all federal, state and local government web resources and services.